Time;durP1;ratioP1;P1;durP2;ratioP2;P2;SDS_P1;SDS_P2;PMS_P1;PMS_P2;Temp;Humidity;BMP_temperature;BMP_pressure;BME280_temperature;BME280_humidity;BME280_pressure;Samples;Min_cycle;Max_cycle;Signal;HPM_P1;HPM_P2
2022/08/12 00:48:48;;;;;;;2.75;1.67;;;;;;;;;;12785224;27;20475;-74
2022/08/12 00:54:51;;;;;;;1.55;1.40;;;;;;;;;;12767417;27;20035;-74
2022/08/12 01:00:56;;;;;;;2.15;1.75;;;;;;;;;;12767233;27;20043;-74
2022/08/12 01:13:20;;;;;;;;;;;;;;;;;;12806728;27;20035;-74
2022/08/12 01:19:22;;;;;;;2.15;0.98;;;;;;;;;;12792442;27;20394;-74
2022/08/12 01:25:29;;;;;;;1.52;1.05;;;;;;;;;;12809576;27;20027;-74
2022/08/12 01:31:31;;;;;;;1.52;0.90;;;;;;;;;;12791430;27;20043;-74
2022/08/12 01:37:35;;;;;;;1.70;1.10;;;;;;;;;;12801053;27;20041;-74
2022/08/12 01:43:37;;;;;;;1.77;0.98;;;;;;;;;;12801135;27;20047;-75
2022/08/12 01:49:59;;;;;;;1.27;0.60;;;;;;;;;;12782129;27;20034;-74
2022/08/12 01:56:02;;;;;;;3.35;1.25;;;;;;;;;;12781234;27;20236;-74
2022/08/12 02:02:06;;;;;;;1.20;1.10;;;;;;;;;;12781333;27;20043;-74
2022/08/12 02:15:05;;;;;;;1.13;1.00;;;;;;;;;;12780731;27;20034;-75
2022/08/12 02:21:14;;;;;;;1.13;0.90;;;;;;;;;;12798805;27;20053;-75
2022/08/12 02:27:18;;;;;;;2.72;0.90;;;;;;;;;;12798764;27;20027;-75
2022/08/12 02:33:20;;;;;;;1.13;0.90;;;;;;;;;;12780069;27;20030;-75
2022/08/12 02:39:25;;;;;;;0.85;0.85;;;;;;;;;;12797871;27;20495;-75
2022/08/12 02:45:34;;;;;;;1.38;0.90;;;;;;;;;;12779439;27;20043;-75
2022/08/12 02:51:39;;;;;;;1.02;0.88;;;;;;;;;;12798062;27;20026;-75
2022/08/12 02:57:43;;;;;;;1.08;0.98;;;;;;;;;;12778456;27;20046;-75
2022/08/12 03:03:45;;;;;;;0.98;0.93;;;;;;;;;;12796735;27;20288;-75
2022/08/12 03:09:52;;;;;;;0.80;0.80;;;;;;;;;;12797518;27;20402;-75
2022/08/12 03:15:55;;;;;;;1.02;0.93;;;;;;;;;;12761759;27;20050;-75
2022/08/12 03:22:11;;;;;;;2.20;1.02;;;;;;;;;;12796776;27;20042;-75
2022/08/12 03:28:49;;;;;;;0.98;0.88;;;;;;;;;;12796760;27;20026;-75
2022/08/12 03:34:35;;;;;;;;;;;;;;;;;;12796942;27;20402;-74
2022/08/12 04:06:29;;;;;;;0.90;0.70;;;;;;;;;;12795078;27;20035;-75
2022/08/12 04:18:51;;;;;;;1.90;0.73;;;;;;;;;;12785634;27;20047;-74
2022/08/12 04:24:53;;;;;;;0.68;0.68;;;;;;;;;;12769147;27;20035;-74
2022/08/12 04:30:58;;;;;;;;;;;;;;;;;;12804765;27;20027;-75
2022/08/12 04:37:10;;;;;;;0.80;0.80;;;;;;;;;;12787200;27;19927;-74
2022/08/12 04:43:13;;;;;;;1.00;0.70;;;;;;;;;;12785228;27;20054;-73
2022/08/12 04:49:15;;;;;;;0.93;0.60;;;;;;;;;;12767841;27;20034;-73
2022/08/12 04:55:16;;;;;;;0.80;0.80;;;;;;;;;;12803343;27;20365;-73
2022/08/12 05:01:19;;;;;;;0.73;0.73;;;;;;;;;;12785072;27;20042;-74
2022/08/12 05:07:21;;;;;;;0.77;0.77;;;;;;;;;;12802507;27;20035;-74
2022/08/12 05:13:28;;;;;;;1.10;1.00;;;;;;;;;;12802711;27;20030;-73
2022/08/12 05:19:30;;;;;;;0.70;0.70;;;;;;;;;;12766627;27;20035;-73
2022/08/12 05:25:32;;;;;;;0.82;0.75;;;;;;;;;;12800672;27;20486;-75
2022/08/12 05:31:34;;;;;;;;;;;;;;;;;;12801721;27;20030;-74
2022/08/12 05:37:35;;;;;;;1.10;1.00;;;;;;;;;;12800950;27;20267;-74
2022/08/12 05:43:37;;;;;;;0.93;0.70;;;;;;;;;;12765612;27;20086;-74
2022/08/12 05:49:40;;;;;;;0.50;0.50;;;;;;;;;;12781573;27;20038;-74
2022/08/12 05:55:42;;;;;;;0.80;0.80;;;;;;;;;;12799987;27;20042;-74
2022/08/12 06:01:44;;;;;;;0.88;0.85;;;;;;;;;;12799559;27;20042;-74
2022/08/12 06:07:46;;;;;;;0.80;0.68;;;;;;;;;;12781079;27;20034;-73
2022/08/12 06:13:48;;;;;;;1.35;1.25;;;;;;;;;;12780739;27;20045;-73
2022/08/12 06:19:50;;;;;;;;;;;;;;;;;;12780800;27;20041;-73
2022/08/12 06:25:51;;;;;;;1.73;0.80;;;;;;;;;;12798657;27;19911;-74
2022/08/12 06:31:53;;;;;;;0.90;0.75;;;;;;;;;;12779832;27;20542;-74
2022/08/12 06:37:55;;;;;;;0.60;0.60;;;;;;;;;;12797999;27;20038;-74
2022/08/12 06:43:57;;;;;;;1.60;1.50;;;;;;;;;;12798208;27;20051;-73
2022/08/12 06:49:58;;;;;;;1.48;1.20;;;;;;;;;;12761976;27;20395;-74
2022/08/12 06:56:00;;;;;;;1.40;1.23;;;;;;;;;;12797693;27;20507;-74
2022/08/12 07:02:02;;;;;;;;;;;;;;;;;;12797603;27;20066;-74
2022/08/12 07:08:05;;;;;;;0.80;0.80;;;;;;;;;;12761551;27;20271;-74
2022/08/12 07:14:08;;;;;;;0.68;0.50;;;;;;;;;;12797064;27;20038;-74
2022/08/12 07:20:10;;;;;;;0.80;0.80;;;;;;;;;;12796417;27;20046;-74
2022/08/12 07:26:15;;;;;;;1.75;1.08;;;;;;;;;;12778104;27;20391;-73
2022/08/12 07:32:18;;;;;;;0.90;0.90;;;;;;;;;;12778045;27;20502;-74
2022/08/12 07:38:29;;;;;;;1.20;1.10;;;;;;;;;;12796292;27;20463;-74
2022/08/12 07:44:31;;;;;;;1.92;0.98;;;;;;;;;;12777800;27;20054;-74
2022/08/12 07:50:33;;;;;;;1.20;0.70;;;;;;;;;;12781212;27;20057;-74
2022/08/12 07:56:37;;;;;;;0.70;0.70;;;;;;;;;;12787683;27;20403;-74
2022/08/12 08:02:39;;;;;;;1.55;1.13;;;;;;;;;;12805410;27;20038;-75
2022/08/12 08:08:41;;;;;;;0.82;0.82;;;;;;;;;;12805448;27;20392;-73
2022/08/12 08:14:43;;;;;;;1.30;1.20;;;;;;;;;;12786415;27;20035;-74
2022/08/12 08:20:45;;;;;;;0.90;0.80;;;;;;;;;;12786227;27;20387;-74
2022/08/12 08:26:48;;;;;;;0.93;0.68;;;;;;;;;;12786116;27;20023;-74
2022/08/12 08:32:50;;;;;;;1.20;1.10;;;;;;;;;;12804178;27;20045;-73
2022/08/12 08:38:56;;;;;;;1.15;1.00;;;;;;;;;;12785604;27;20403;-74
2022/08/12 08:45:00;;;;;;;1.00;0.80;;;;;;;;;;12785166;27;20039;-74
2022/08/12 08:51:04;;;;;;;2.10;1.05;;;;;;;;;;12803239;27;20042;-75
2022/08/12 08:57:07;;;;;;;0.80;0.80;;;;;;;;;;12767547;27;20050;-73
2022/08/12 09:03:09;;;;;;;0.77;0.63;;;;;;;;;;12766543;27;20047;-73
2022/08/12 09:09:13;;;;;;;1.23;0.90;;;;;;;;;;12784630;27;20027;-74
2022/08/12 09:15:15;;;;;;;0.55;0.55;;;;;;;;;;12783521;27;20035;-75
2022/08/12 09:21:17;;;;;;;0.98;0.90;;;;;;;;;;12801850;27;20043;-74
2022/08/12 09:27:19;;;;;;;0.65;0.50;;;;;;;;;;12782935;27;20042;-73
2022/08/12 09:33:21;;;;;;;2.05;0.70;;;;;;;;;;12782896;27;20511;-74
2022/08/12 09:39:22;;;;;;;1.23;0.70;;;;;;;;;;12781914;27;20404;-74
2022/08/12 09:45:24;;;;;;;0.75;0.50;;;;;;;;;;12800587;27;20031;-74
2022/08/12 09:51:26;;;;;;;0.75;0.68;;;;;;;;;;12800323;27;20058;-75
2022/08/12 09:57:28;;;;;;;1.20;0.60;;;;;;;;;;12781650;27;20035;-73
2022/08/12 10:03:31;;;;;;;0.70;0.60;;;;;;;;;;12799636;27;20039;-75
2022/08/12 10:09:33;;;;;;;0.40;0.38;;;;;;;;;;12799655;27;20034;-75
2022/08/12 10:15:35;;;;;;;0.60;0.40;;;;;;;;;;12763160;27;20504;-75
2022/08/12 10:21:37;;;;;;;1.17;0.52;;;;;;;;;;12798947;27;20046;-74
2022/08/12 10:34:00;;;;;;;0.50;0.50;;;;;;;;;;12776644;27;20034;-74
2022/08/12 10:40:03;;;;;;;0.80;0.60;;;;;;;;;;12759858;27;20050;-75
2022/08/12 10:46:06;;;;;;;0.50;0.50;;;;;;;;;;12797780;27;20035;-74
2022/08/12 10:52:08;;;;;;;0.73;0.70;;;;;;;;;;12797599;27;20034;-76
2022/08/12 10:58:10;;;;;;;1.08;0.40;;;;;;;;;;12797180;27;20042;-75
2022/08/12 11:04:15;;;;;;;1.05;0.40;;;;;;;;;;12796635;27;20038;-75
2022/08/12 11:10:17;;;;;;;0.60;0.60;;;;;;;;;;12796627;27;20046;-73
2022/08/12 11:16:19;;;;;;;1.48;0.50;;;;;;;;;;12778248;27;20041;-74
2022/08/12 11:22:21;;;;;;;0.95;0.60;;;;;;;;;;12796664;27;20045;-75
2022/08/12 11:28:22;;;;;;;0.77;0.60;;;;;;;;;;12786902;27;20037;-74
2022/08/12 11:34:24;;;;;;;1.25;0.63;;;;;;;;;;12788548;27;20037;-74
2022/08/12 11:40:27;;;;;;;0.40;0.40;;;;;;;;;;12770844;27;20057;-75
2022/08/12 11:46:28;;;;;;;0.80;0.57;;;;;;;;;;12770807;27;20034;-74
2022/08/12 11:52:30;;;;;;;0.70;0.38;;;;;;;;;;12770020;27;20031;-74
2022/08/12 11:58:33;;;;;;;1.55;0.80;;;;;;;;;;12787096;27;20179;-74
2022/08/12 12:04:35;;;;;;;0.85;0.70;;;;;;;;;;12786530;27;20475;-72
2022/08/12 12:10:36;;;;;;;0.45;0.45;;;;;;;;;;12787350;27;20365;-74
2022/08/12 12:16:38;;;;;;;1.63;0.90;;;;;;;;;;12805058;27;20049;-75
2022/08/12 12:22:42;;;;;;;0.88;0.65;;;;;;;;;;12785943;27;20046;-74
2022/08/12 12:28:44;;;;;;;0.52;0.50;;;;;;;;;;12804258;27;20037;-73
2022/08/12 12:34:46;;;;;;;1.38;0.82;;;;;;;;;;12803425;27;20143;-74
2022/08/12 12:40:48;;;;;;;0.50;0.50;;;;;;;;;;12785305;27;20054;-74
2022/08/12 12:46:50;;;;;;;0.60;0.60;;;;;;;;;;12803380;27;20499;-74
2022/08/12 12:52:52;;;;;;;0.73;0.73;;;;;;;;;;12784525;27;20037;-75
2022/08/12 12:58:54;;;;;;;0.70;0.60;;;;;;;;;;12784453;27;20054;-74
2022/08/12 13:04:56;;;;;;;0.50;0.50;;;;;;;;;;12784279;27;20031;-74
2022/08/12 13:11:00;;;;;;;1.50;0.73;;;;;;;;;;12803222;27;20022;-75
2022/08/12 13:17:02;;;;;;;1.20;0.70;;;;;;;;;;12802125;27;20035;-75
2022/08/12 13:23:06;;;;;;;1.17;0.70;;;;;;;;;;12765896;27;20055;-74
2022/08/12 13:29:08;;;;;;;1.10;0.75;;;;;;;;;;12766123;27;20034;-74
2022/08/12 13:35:10;;;;;;;0.75;0.70;;;;;;;;;;12800947;27;20034;-74
2022/08/12 13:41:17;;;;;;;0.45;0.35;;;;;;;;;;12765408;27;20520;-74
2022/08/12 13:47:20;;;;;;;0.80;0.60;;;;;;;;;;12799965;27;20407;-74
2022/08/12 13:53:25;;;;;;;0.55;0.55;;;;;;;;;;12782308;27;20023;-74
2022/08/12 13:59:28;;;;;;;0.65;0.65;;;;;;;;;;12800127;27;20507;-73
2022/08/12 14:05:32;;;;;;;2.33;0.70;;;;;;;;;;12764291;27;20022;-74
2022/08/12 14:11:36;;;;;;;2.47;1.00;;;;;;;;;;12781229;27;20030;-75
2022/08/12 14:17:40;;;;;;;1.17;0.77;;;;;;;;;;12799098;27;20038;-74
2022/08/12 14:23:43;;;;;;;0.70;0.70;;;;;;;;;;12798665;27;20423;-75
2022/08/12 14:29:45;;;;;;;2.45;0.90;;;;;;;;;;12779957;27;20038;-75
2022/08/12 14:35:48;;;;;;;1.42;0.90;;;;;;;;;;12780625;27;20406;-74
2022/08/12 14:41:49;;;;;;;1.58;0.90;;;;;;;;;;12761987;27;20503;-75
2022/08/12 14:47:53;;;;;;;1.30;0.80;;;;;;;;;;12761968;27;20030;-74
2022/08/12 14:53:55;;;;;;;0.82;0.82;;;;;;;;;;12779339;27;20034;-74
2022/08/12 15:06:40;;;;;;;0.73;0.67;;;;;;;;;;12781236;27;20485;-74
2022/08/12 15:12:42;;;;;;;1.15;0.85;;;;;;;;;;12761827;27;20214;-73
2022/08/12 15:18:44;;;;;;;0.75;0.68;;;;;;;;;;12777388;27;20042;-74
2022/08/12 15:24:47;;;;;;;2.65;1.05;;;;;;;;;;12776810;27;20128;-74
2022/08/12 15:30:51;;;;;;;4.28;0.77;;;;;;;;;;12776642;27;20038;-74
2022/08/12 15:37:12;;;;;;;1.48;0.60;;;;;;;;;;12780493;27;20053;-74
2022/08/12 15:43:15;;;;;;;1.40;0.80;;;;;;;;;;12776518;27;20046;-74
2022/08/12 15:49:17;;;;;;;1.90;0.75;;;;;;;;;;12795584;27;20027;-74
2022/08/12 15:55:20;;;;;;;1.10;0.70;;;;;;;;;;12776398;27;20042;-74
2022/08/12 16:01:22;;;;;;;0.88;0.68;;;;;;;;;;12773944;27;20045;-74
2022/08/12 16:07:25;;;;;;;1.90;0.70;;;;;;;;;;12794193;27;20034;-73
2022/08/12 16:13:26;;;;;;;1.17;0.70;;;;;;;;;;12802063;27;20043;-75
2022/08/12 16:19:29;;;;;;;0.63;0.60;;;;;;;;;;12804715;27;20495;-75
2022/08/12 16:25:31;;;;;;;1.75;0.60;;;;;;;;;;12804360;27;20031;-75
2022/08/12 16:31:34;;;;;;;0.63;0.40;;;;;;;;;;12785575;27;20079;-75
2022/08/12 16:37:35;;;;;;;2.88;0.50;;;;;;;;;;12803665;27;20502;-75
2022/08/12 16:43:39;;;;;;;0.77;0.55;;;;;;;;;;12803436;27;20054;-74
2022/08/12 16:49:41;;;;;;;0.50;0.50;;;;;;;;;;12784911;27;20487;-73
2022/08/12 16:55:43;;;;;;;0.40;0.40;;;;;;;;;;12803333;27;20031;-75
2022/08/12 17:01:45;;;;;;;0.77;0.30;;;;;;;;;;12803066;27;20049;-74
2022/08/12 17:07:46;;;;;;;0.85;0.40;;;;;;;;;;12802519;27;20376;-74
2022/08/12 17:13:48;;;;;;;0.40;0.40;;;;;;;;;;12783869;27;20483;-74
2022/08/12 17:19:59;;;;;;;0.50;0.40;;;;;;;;;;12766367;27;20058;-73
2022/08/12 17:26:01;;;;;;;0.55;0.32;;;;;;;;;;12764826;27;20042;-74
2022/08/12 17:32:03;;;;;;;0.30;0.30;;;;;;;;;;12782988;27;20402;-75
2022/08/12 17:38:12;;;;;;;0.40;0.30;;;;;;;;;;12801393;27;20038;-74
2022/08/12 17:44:15;;;;;;;0.63;0.30;;;;;;;;;;12782466;27;20058;-75
2022/08/12 17:50:17;;;;;;;2.15;0.40;;;;;;;;;;12764717;27;20468;-74
2022/08/12 17:56:19;;;;;;;0.90;0.40;;;;;;;;;;12800368;27;20026;-74
2022/08/12 18:02:21;;;;;;;0.63;0.30;;;;;;;;;;12800694;27;20038;-74
2022/08/12 18:08:26;;;;;;;1.30;0.25;;;;;;;;;;12780571;27;20415;-74
2022/08/12 18:14:28;;;;;;;0.30;0.30;;;;;;;;;;12800041;27;20487;-74
2022/08/12 18:20:30;;;;;;;0.63;0.20;;;;;;;;;;12798830;27;20105;-74
2022/08/12 18:26:32;;;;;;;0.40;0.40;;;;;;;;;;12798630;27;20034;-74
2022/08/12 18:32:35;;;;;;;0.70;0.65;;;;;;;;;;12779762;27;20030;-75
2022/08/12 18:38:38;;;;;;;1.10;0.70;;;;;;;;;;12762580;27;20066;-74
2022/08/12 18:44:41;;;;;;;0.47;0.40;;;;;;;;;;12762199;27;20039;-75
2022/08/12 18:50:49;;;;;;;0.65;0.30;;;;;;;;;;12797737;27;20403;-75
2022/08/12 18:56:51;;;;;;;0.65;0.65;;;;;;;;;;12761703;27;20034;-75
2022/08/12 19:02:53;;;;;;;1.17;0.40;;;;;;;;;;12796915;27;20492;-74
2022/08/12 19:08:56;;;;;;;;;;;;;;;;;;12797630;27;20395;-74
2022/08/12 19:15:02;;;;;;;1.08;0.30;;;;;;;;;;12778294;27;19911;-75
2022/08/12 19:21:03;;;;;;;0.40;0.20;;;;;;;;;;12796588;27;20042;-74
2022/08/12 19:27:05;;;;;;;;;;;;;;;;;;12796970;27;20031;-73
2022/08/12 19:33:09;;;;;;;0.40;0.40;;;;;;;;;;12796416;27;19918;-74
2022/08/12 19:39:14;;;;;;;0.30;0.20;;;;;;;;;;12760771;27;20050;-74
2022/08/12 19:45:16;;;;;;;0.40;0.40;;;;;;;;;;12779503;27;20035;-74
2022/08/12 19:51:31;;;;;;;0.30;0.30;;;;;;;;;;12787855;27;20027;-74
2022/08/12 19:57:33;;;;;;;0.75;0.75;;;;;;;;;;12806173;27;20031;-73
2022/08/12 20:03:35;;;;;;;;;;;;;;;;;;12806225;27;20503;-74
2022/08/12 20:09:37;;;;;;;0.85;0.73;;;;;;;;;;12787515;27;19907;-74
2022/08/12 20:15:39;;;;;;;0.60;0.50;;;;;;;;;;12804974;27;20038;-74
2022/08/12 20:21:40;;;;;;;;;;;;;;;;;;12787003;27;20500;-74
2022/08/12 20:27:43;;;;;;;0.53;0.50;;;;;;;;;;12786115;27;19914;-74
2022/08/12 20:33:46;;;;;;;1.10;0.88;;;;;;;;;;12803581;27;20038;-74
2022/08/12 20:39:48;;;;;;;1.23;0.70;;;;;;;;;;12767804;27;20050;-74
2022/08/12 20:45:50;;;;;;;0.75;0.63;;;;;;;;;;12784960;27;20385;-74
2022/08/12 20:51:53;;;;;;;0.80;0.70;;;;;;;;;;12803412;27;20033;-74
2022/08/12 20:57:56;;;;;;;0.50;0.50;;;;;;;;;;12802694;27;20070;-74
2022/08/12 21:10:18;;;;;;;0.40;0.40;;;;;;;;;;12784469;27;20035;-74
2022/08/12 21:16:20;;;;;;;;;;;;;;;;;;12802801;27;20046;-74
2022/08/12 21:22:27;;;;;;;1.23;0.30;;;;;;;;;;12783778;27;20387;-74
2022/08/12 21:28:29;;;;;;;0.50;0.28;;;;;;;;;;12783067;27;20030;-73
2022/08/12 21:34:31;;;;;;;0.45;0.30;;;;;;;;;;12802271;27;20383;-74
2022/08/12 21:40:32;;;;;;;0.57;0.30;;;;;;;;;;12782568;27;20489;-74
2022/08/12 21:46:37;;;;;;;0.90;0.50;;;;;;;;;;12782532;27;20395;-75
2022/08/12 21:52:42;;;;;;;0.40;0.40;;;;;;;;;;12782078;27;20038;-75
2022/08/12 21:58:44;;;;;;;1.13;1.08;;;;;;;;;;12765066;27;20031;-75
2022/08/12 22:11:06;;;;;;;1.25;1.10;;;;;;;;;;12799678;27;20035;-75
2022/08/12 22:17:08;;;;;;;0.75;0.75;;;;;;;;;;12780836;27;20035;-74
2022/08/12 22:23:10;;;;;;;;;;;;;;;;;;12799615;27;20395;-74
2022/08/12 22:35:32;;;;;;;1.00;1.00;;;;;;;;;;12798364;27;20391;-74
2022/08/12 22:47:55;;;;;;;0.77;0.77;;;;;;;;;;12779749;27;20042;-74
2022/08/12 22:53:57;;;;;;;1.20;1.02;;;;;;;;;;12797907;27;20045;-74
2022/08/12 23:00:00;;;;;;;1.60;1.13;;;;;;;;;;12797419;27;20034;-74
2022/08/12 23:06:01;;;;;;;2.05;1.27;;;;;;;;;;12761951;27;20049;-75
2022/08/12 23:12:03;;;;;;;1.10;1.00;;;;;;;;;;12798232;27;20027;-75
2022/08/12 23:18:11;;;;;;;1.00;0.90;;;;;;;;;;12778545;27;20050;-75
2022/08/12 23:24:13;;;;;;;1.08;0.98;;;;;;;;;;12796587;27;20502;-74
2022/08/12 23:30:15;;;;;;;1.17;0.80;;;;;;;;;;12796581;27;20042;-75
2022/08/12 23:36:19;;;;;;;;;;;;;;;;;;12761347;27;20034;-74
2022/08/12 23:42:23;;;;;;;0.70;0.60;;;;;;;;;;12777446;27;19922;-73
2022/08/12 23:48:25;;;;;;;0.98;0.80;;;;;;;;;;12796229;27;20054;-73
2022/08/12 23:54:27;;;;;;;0.63;0.60;;;;;;;;;;12795867;27;20403;-74
